createdAt,value
2023-03-22T00:01:14.568Z,94738.41
2023-03-22T00:03:42.678Z,94730.81
2023-03-22T00:06:09.852Z,94727.13
2023-03-22T00:08:36.930Z,94734.72
2023-03-22T00:11:04.922Z,94719.22
2023-03-22T00:13:35.024Z,94720.81
2023-03-22T00:16:03.034Z,94735.97
2023-03-22T00:18:30.566Z,94733.41
2023-03-22T00:20:59.441Z,94736.69
2023-03-22T00:23:27.803Z,94729.59
2023-03-22T00:25:55.336Z,94725.09
2023-03-22T00:28:22.662Z,94721.50
2023-03-22T00:30:58.719Z,94721.50
2023-03-22T00:33:27.960Z,94722.78
2023-03-22T00:35:58.838Z,94716.78
2023-03-22T00:38:41.203Z,94715.34
2023-03-22T00:41:13.728Z,94727.28
2023-03-22T00:43:41.204Z,94722.06
2023-03-22T00:46:08.793Z,94717.22
2023-03-22T00:48:36.205Z,94715.94
2023-03-22T00:51:03.542Z,94724.44
2023-03-22T00:53:33.179Z,94710.28
2023-03-22T00:56:00.452Z,94703.34
2023-03-22T00:58:32.221Z,94715.94
2023-03-22T01:00:59.058Z,94711.09
2023-03-22T01:03:27.264Z,94709.47
2023-03-22T01:05:55.977Z,94705.88
2023-03-22T01:08:24.546Z,94707.66
2023-03-22T01:10:52.075Z,94713.13
2023-03-22T01:13:19.035Z,94704.09
2023-03-22T01:15:48.050Z,94701.19
2023-03-22T01:18:16.262Z,94698.44
2023-03-22T01:20:43.861Z,94695.56
2023-03-22T01:23:10.930Z,94701.19
2023-03-22T01:25:37.825Z,94694.75
2023-03-22T03:08:12.851Z,94708.78
2023-03-22T03:10:42.356Z,94707.69
2023-03-22T03:13:16.786Z,94705.47
2023-03-22T03:15:48.871Z,94703.56
2023-03-22T03:18:40.848Z,94709.06
2023-03-22T03:21:07.659Z,94710.56
2023-03-22T03:23:53.279Z,94711.50
2023-03-22T03:26:44.329Z,94719.22
2023-03-22T03:29:29.592Z,94713.28
2023-03-22T06:18:09.362Z,94811.47
2023-03-22T06:20:41.642Z,94810.88
2023-03-22T06:23:15.068Z,94817.06
2023-03-22T06:25:45.327Z,94811.59
2023-03-22T06:28:12.676Z,94818.38
2023-03-22T06:30:47.366Z,94819.69
2023-03-22T06:33:19.945Z,94819.41
2023-03-22T06:35:53.036Z,94825.56
2023-03-22T06:38:29.048Z,94824.44
2023-03-22T06:40:56.307Z,94830.09
2023-03-22T06:43:23.145Z,94827.22
2023-03-22T06:45:57.470Z,94823.72
2023-03-22T06:48:36.868Z,94833.94
2023-03-22T06:51:07.069Z,94834.75
2023-03-22T06:53:35.930Z,94830.91
2023-03-22T06:56:04.282Z,94827.53
2023-03-22T06:58:38.532Z,94817.50
2023-03-22T07:01:05.756Z,94835.31
2023-03-22T07:03:34.131Z,94836.00
2023-03-22T07:06:08.784Z,94842.59
2023-03-22T07:08:39.540Z,94840.34
2023-03-22T07:11:08.104Z,94840.06
2023-03-22T07:13:35.692Z,94843.28
2023-03-22T07:16:10.216Z,94847.81
2023-03-22T07:18:45.041Z,94845.56
2023-03-22T07:21:12.265Z,94847.66
2023-03-22T07:23:43.542Z,94853.66
2023-03-22T07:26:14.563Z,94847.69
2023-03-22T07:28:44.898Z,94864.00
2023-03-22T07:31:14.361Z,94857.41
2023-03-22T07:33:52.382Z,94858.84
2023-03-22T07:36:24.173Z,94873.06
2023-03-22T07:38:52.407Z,94869.19
2023-03-22T07:41:40.435Z,94865.97
2023-03-22T07:44:18.225Z,94870.78
2023-03-22T08:58:20.429Z,94899.19
2023-03-22T09:00:56.819Z,94912.00
2023-03-22T09:03:47.281Z,94906.69
2023-03-22T09:06:14.923Z,94914.28
2023-03-22T09:08:52.404Z,94918.00
2023-03-22T09:11:22.519Z,94911.38
2023-03-22T09:13:51.242Z,94901.19
2023-03-22T09:16:19.278Z,94919.31
2023-03-22T09:18:47.191Z,94907.03
2023-03-22T09:21:22.040Z,94923.16
2023-03-22T09:23:53.302Z,94917.84
2023-03-22T09:26:27.257Z,94920.56
2023-03-22T09:28:56.201Z,94925.38
2023-03-22T09:31:26.002Z,94921.03
2023-03-22T09:34:06.549Z,94917.34
2023-03-22T09:36:35.310Z,94917.84
2023-03-22T09:39:07.478Z,94913.66
2023-03-22T09:41:41.300Z,94905.09
2023-03-22T09:44:16.371Z,94913.88
2023-03-22T10:03:44.258Z,94922.38
2023-03-22T10:06:37.456Z,94911.09
2023-03-22T10:09:19.700Z,94921.72
2023-03-22T10:11:54.231Z,94913.38
2023-03-22T10:14:30.832Z,94922.09
2023-03-22T10:17:00.708Z,94909.84
2023-03-22T10:19:40.403Z,94913.22
2023-03-22T10:22:15.854Z,94921.69
2023-03-22T10:24:47.054Z,94922.00
2023-03-22T10:27:22.849Z,94924.41
2023-03-22T10:29:55.985Z,94920.56
2023-03-22T10:32:45.239Z,94932.81
2023-03-22T11:12:29.558Z,94916.97
2023-03-22T11:14:56.605Z,94924.22
2023-03-22T11:17:26.121Z,94922.28
2023-03-22T11:20:07.799Z,94920.50
2023-03-22T11:22:49.652Z,94913.41
2023-03-22T11:25:28.438Z,94910.34
2023-03-22T11:28:17.080Z,94903.25
2023-03-22T11:31:18.360Z,94911.50
2023-03-22T11:34:15.826Z,94909.22
2023-03-22T12:03:27.431Z,94915.59
2023-03-22T12:05:55.246Z,94912.06
2023-03-22T12:08:46.443Z,94915.31
2023-03-22T12:11:41.253Z,94909.84
2023-03-22T12:14:25.148Z,94905.00
2023-03-22T12:17:00.182Z,94901.63
2023-03-22T12:19:58.762Z,94901.53
2023-03-22T12:22:33.206Z,94900.91
2023-03-22T12:25:01.720Z,94900.56
2023-03-22T12:27:37.646Z,94897.69
2023-03-22T12:30:04.651Z,94893.19
2023-03-22T12:32:36.980Z,94899.34
2023-03-22T12:35:16.662Z,94891.75
2023-03-22T12:37:48.461Z,94879.97
2023-03-22T12:40:23.058Z,94882.22
2023-03-22T12:43:00.143Z,94886.75
2023-03-22T12:45:29.618Z,94884.50
2023-03-22T12:48:18.254Z,94891.28
2023-03-22T12:50:52.367Z,94891.59
2023-03-22T12:53:21.359Z,94880.94
2023-03-22T12:55:49.533Z,94893.22
2023-03-22T12:58:22.451Z,94892.88
2023-03-22T13:00:58.379Z,94886.75
2023-03-22T13:03:29.370Z,94881.56
2023-03-22T13:06:05.834Z,94882.88
2023-03-22T13:09:04.610Z,94894.03
2023-03-22T13:11:31.710Z,94889.34
2023-03-22T13:13:58.506Z,94889.00
2023-03-22T13:16:53.516Z,94883.19
2023-03-22T13:19:36.338Z,94880.44
2023-03-22T13:22:21.188Z,94882.22
2023-03-22T13:25:17.328Z,94877.03
2023-03-22T13:28:05.352Z,94880.75
2023-03-22T13:30:49.265Z,94873.09
2023-03-22T13:33:30.242Z,94878.53
2023-03-22T13:36:05.937Z,94869.59
2023-03-22T13:38:38.048Z,94866.66
2023-03-22T13:41:07.953Z,94869.94
2023-03-22T13:43:50.455Z,94870.06
2023-03-22T13:46:20.879Z,94870.00
2023-03-22T13:48:48.463Z,94866.66
2023-03-22T13:51:22.144Z,94872.13
2023-03-22T13:54:07.514Z,94866.75
2023-03-22T13:56:52.515Z,94875.72
2023-03-22T13:59:30.043Z,94870.94
2023-03-22T14:02:15.760Z,94878.19
2023-03-22T14:04:56.188Z,94873.63
2023-03-22T14:07:27.215Z,94871.19
2023-03-22T14:10:02.304Z,94870.22
2023-03-22T14:12:45.577Z,94875.88
2023-03-22T14:15:17.808Z,94875.31
2023-03-22T14:17:56.407Z,94878.53
2023-03-22T14:20:29.709Z,94878.97
2023-03-22T14:53:47.432Z,94883.72
2023-03-22T14:56:19.001Z,94881.56
2023-03-22T14:58:48.562Z,94882.84
2023-03-22T15:01:26.104Z,94883.16
2023-03-22T15:03:58.095Z,94883.28
2023-03-22T15:06:27.335Z,94881.53
2023-03-22T15:08:54.576Z,94884.63
2023-03-22T15:11:22.144Z,94884.28
2023-03-22T15:13:52.180Z,94881.41
2023-03-22T15:16:22.366Z,94880.00
2023-03-22T15:18:52.490Z,94877.63
2023-03-22T15:21:19.728Z,94870.88
2023-03-22T15:23:55.040Z,94867.28
2023-03-22T15:26:28.123Z,94876.16
2023-03-22T15:28:57.104Z,94874.56
2023-03-22T15:31:33.541Z,94875.25
2023-03-22T15:34:03.808Z,94873.94
2023-03-22T15:36:33.404Z,94872.75
2023-03-22T15:39:06.746Z,94870.91
2023-03-22T15:41:44.047Z,94867.03
2023-03-22T15:44:26.676Z,94877.78
2023-03-22T15:47:14.328Z,94873.38
2023-03-22T15:49:45.601Z,94873.38
2023-03-22T15:52:12.505Z,94882.75
2023-03-22T15:54:56.556Z,94875.31
2023-03-22T15:57:37.097Z,94879.44
2023-03-22T16:00:19.460Z,94886.31
2023-03-22T16:02:52.584Z,94886.00
2023-03-22T16:05:21.381Z,94888.84
2023-03-22T16:07:48.365Z,94882.50
2023-03-22T16:10:20.775Z,94888.91
2023-03-22T16:12:48.994Z,94898.34
2023-03-22T16:15:19.866Z,94893.97
2023-03-22T16:17:47.151Z,94894.63
2023-03-22T16:20:15.889Z,94903.56
2023-03-22T16:22:45.143Z,94893.56
2023-03-22T16:25:19.356Z,94902.66
2023-03-22T16:27:46.378Z,94901.44
2023-03-22T16:30:14.774Z,94896.75
2023-03-22T16:32:43.446Z,94899.03
2023-03-22T16:35:16.529Z,94912.66
2023-03-22T16:37:44.130Z,94906.84
2023-03-22T16:40:16.479Z,94918.34
2023-03-22T16:42:43.717Z,94886.38
2023-03-22T16:45:19.713Z,94920.81
2023-03-22T16:47:47.458Z,94926.66
2023-03-22T16:50:14.521Z,94919.38
2023-03-22T16:52:41.613Z,94923.59
2023-03-22T16:55:22.404Z,94924.22
2023-03-22T16:57:50.078Z,94936.03
2023-03-22T17:00:19.612Z,94939.75
2023-03-22T17:02:49.184Z,94938.78
2023-03-22T17:05:21.680Z,94944.94
2023-03-22T17:07:50.217Z,94943.31
2023-03-22T17:10:20.000Z,94939.28
2023-03-22T17:12:49.786Z,94942.34
2023-03-22T17:15:29.068Z,94936.03
2023-03-22T17:17:56.059Z,94947.88
2023-03-22T17:20:23.606Z,94944.16
2023-03-22T17:22:50.800Z,94949.31
2023-03-22T17:25:21.681Z,94953.19
2023-03-22T17:27:48.711Z,94962.25
2023-03-22T17:30:16.034Z,94965.00
2023-03-22T17:32:57.844Z,94970.53
2023-03-22T17:35:30.648Z,94975.06
2023-03-22T17:37:59.245Z,94974.41
2023-03-22T17:40:33.112Z,94974.69
2023-03-22T17:43:07.033Z,94991.53
2023-03-22T17:46:00.998Z,94981.97
2023-03-22T17:48:23.223Z,94987.94
2023-03-22T17:50:50.679Z,94988.56
2023-03-22T17:53:29.236Z,95002.28
2023-03-22T17:56:43.863Z,95009.84
2023-03-22T17:58:52.284Z,95004.81
2023-03-22T18:01:21.612Z,95001.69
2023-03-22T18:03:48.957Z,95003.28
2023-03-22T18:06:16.430Z,95007.28
2023-03-22T18:08:44.946Z,95009.31
2023-03-22T18:11:15.284Z,95011.88
2023-03-22T18:13:44.462Z,95015.41
2023-03-22T18:16:11.901Z,95010.56
2023-03-22T18:18:38.930Z,95019.09
2023-03-22T18:21:15.740Z,95012.69
2023-03-22T18:23:43.381Z,95016.38
2023-03-22T18:26:27.340Z,95017.75
2023-03-22T18:28:56.039Z,95026.69
2023-03-22T18:31:23.293Z,95024.25
2023-03-22T18:33:50.608Z,95017.75
2023-03-22T18:36:18.020Z,95021.59
2023-03-22T18:39:30.400Z,95022.19
2023-03-22T18:41:45.987Z,95018.88
2023-03-22T18:44:14.981Z,95022.78
2023-03-22T18:46:43.730Z,95025.34
2023-03-22T18:49:11.191Z,95023.59
2023-03-22T18:54:11.066Z,95022.13
2023-03-22T18:56:38.462Z,95030.66
2023-03-22T18:59:06.350Z,95026.59
2023-03-22T19:01:33.533Z,95021.75
2023-03-22T19:04:00.634Z,95021.75
2023-03-22T19:06:27.601Z,95015.19
2023-03-22T19:08:54.915Z,95016.94
2023-03-22T19:11:22.838Z,95032.28
2023-03-22T19:16:33.308Z,95019.00
2023-03-22T19:19:01.809Z,95022.81
2023-03-22T19:21:32.349Z,95004.56
2023-03-22T19:23:59.771Z,95013.25
2023-03-22T19:26:27.964Z,95018.94
2023-03-22T19:28:58.564Z,95022.09
